Time;durP1;ratioP1;P1;durP2;ratioP2;P2;SDS_P1;SDS_P2;PMS_P1;PMS_P2;Temp;Humidity;BMP_temperature;BMP_pressure;BME280_temperature;BME280_humidity;BME280_pressure;Samples;Min_cycle;Max_cycle;Signal;HPM_P1;HPM_P2
2023/05/08 00:01:55;;;;;;;12.43;11.27;;;;;;;14.71;100.00;98337.78;5113863;28;20290;-76
2023/05/08 00:04:21;;;;;;;12.13;11.03;;;;;;;14.73;100.00;98338.34;5113899;28;20209;-76
2023/05/08 00:06:48;;;;;;;12.80;11.50;;;;;;;14.71;100.00;98343.13;5113306;28;20690;-76
2023/05/08 00:09:15;;;;;;;12.70;11.10;;;;;;;14.69;100.00;98337.19;5113457;28;20298;-76
2023/05/08 00:11:41;;;;;;;12.77;11.47;;;;;;;14.67;100.00;98344.66;5113809;28;20207;-76
2023/05/08 00:14:07;;;;;;;12.43;11.43;;;;;;;14.75;100.00;98342.41;5113670;28;20204;-76
2023/05/08 00:16:34;;;;;;;12.30;11.30;;;;;;;14.66;100.00;98341.16;5113120;28;20769;-76
2023/05/08 00:19:00;;;;;;;12.07;10.90;;;;;;;14.61;100.00;98341.06;5113270;28;20203;-76
2023/05/08 00:21:27;;;;;;;11.63;10.63;;;;;;;14.62;100.00;98341.88;5113235;28;20302;-76
2023/05/08 00:23:53;;;;;;;13.00;11.23;;;;;;;14.62;100.00;98340.03;5113961;28;20210;-76
2023/05/08 00:26:20;;;;;;;12.20;11.10;;;;;;;14.60;100.00;98344.78;5116897;28;20227;-76
2023/05/08 00:28:47;;;;;;;12.63;11.53;;;;;;;14.60;100.00;98352.81;5117332;28;20203;-76
2023/05/08 00:31:13;;;;;;;12.60;11.50;;;;;;;14.60;100.00;98344.00;5117302;28;20207;-76
2023/05/08 00:33:40;;;;;;;13.87;12.47;;;;;;;14.55;100.00;98346.53;5116925;27;20213;-76
2023/05/08 00:36:07;;;;;;;15.53;12.00;;;;;;;14.56;100.00;98346.31;5117175;28;20219;-76
2023/05/08 00:38:35;;;;;;;13.00;11.90;;;;;;;14.61;100.00;98342.94;5117170;28;20278;-76
2023/05/08 00:41:01;;;;;;;13.20;11.87;;;;;;;14.59;100.00;98351.19;5117093;27;20204;-76
2023/05/08 00:43:28;;;;;;;13.60;12.43;;;;;;;14.59;100.00;98345.84;5116787;28;20699;-76
2023/05/08 00:46:01;;;;;;;13.77;12.37;;;;;;;14.62;100.00;98349.91;5116954;28;20234;-76
2023/05/08 00:48:33;;;;;;;13.97;12.53;;;;;;;14.63;100.00;98352.34;5116860;28;20230;-76
2023/05/08 00:51:02;;;;;;;13.13;12.03;;;;;;;14.61;100.00;98351.75;5116902;28;20214;-76
2023/05/08 00:53:32;;;;;;;14.00;12.60;;;;;;;14.63;100.00;98347.00;5116568;28;20217;-76
2023/05/08 00:55:59;;;;;;;13.10;12.00;;;;;;;14.62;100.00;98348.06;5116817;28;20223;-76
2023/05/08 00:58:27;;;;;;;14.10;12.63;;;;;;;14.58;100.00;98354.94;5116506;28;20204;-76
2023/05/08 01:00:56;;;;;;;15.00;13.43;;;;;;;14.54;100.00;98353.78;5116754;28;20206;-76
2023/05/08 01:03:23;;;;;;;14.53;13.33;;;;;;;14.54;100.00;98353.78;5116731;28;20239;-76
2023/05/08 01:05:50;;;;;;;14.87;13.47;;;;;;;14.56;100.00;98357.00;5116498;28;20223;-76
2023/05/08 01:08:16;;;;;;;15.20;13.60;;;;;;;14.58;100.00;98360.28;5116537;27;20238;-76
2023/05/08 01:10:51;;;;;;;15.33;13.77;;;;;;;14.59;100.00;98353.03;5116265;27;20658;-76
2023/05/08 01:13:26;;;;;;;13.90;12.80;;;;;;;14.60;100.00;98362.72;5116557;28;20190;-76
2023/05/08 01:16:10;;;;;;;14.80;13.60;;;;;;;14.58;100.00;98360.28;5114878;28;20230;-76
2023/05/08 01:18:44;;;;;;;14.83;13.33;;;;;;;14.60;100.00;98363.53;5116406;28;20187;-76
2023/05/08 01:21:14;;;;;;;14.47;13.07;;;;;;;14.59;100.00;98361.91;5116098;27;20215;-76
2023/05/08 01:24:18;;;;;;;14.73;12.93;;;;;;;14.61;100.00;98353.63;5116020;27;20194;-76
2023/05/08 01:27:30;;;;;;;17.07;15.27;;;;;;;14.55;100.00;98357.25;5116075;28;20226;-76
2023/05/08 01:30:15;;;;;;;17.03;15.33;;;;;;;14.56;100.00;98361.56;5115047;28;20191;-76
2023/05/08 01:32:46;;;;;;;17.17;15.47;;;;;;;14.53;100.00;98360.19;5116219;28;20557;-76
2023/05/08 01:35:21;;;;;;;16.57;15.13;;;;;;;14.57;100.00;98369.34;5115838;27;20296;-76
2023/05/08 01:37:57;;;;;;;17.40;15.90;;;;;;;14.53;100.00;98362.03;5116100;28;20187;-76
2023/05/08 01:40:42;;;;;;;17.17;15.47;;;;;;;14.54;100.00;98361.81;5115726;28;20198;-76
2023/05/08 01:43:30;;;;;;;16.17;14.77;;;;;;;14.58;100.00;98368.31;5115591;28;20665;-76
2023/05/08 01:45:59;;;;;;;18.10;16.30;;;;;;;14.58;100.00;98365.63;5115613;28;20710;-76
2023/05/08 01:48:32;;;;;;;18.50;16.60;;;;;;;14.55;100.00;98368.78;5115800;28;20234;-76
2023/05/08 01:51:04;;;;;;;18.73;16.10;;;;;;;14.53;100.00;98376.22;5115543;28;20657;-76
2023/05/08 01:53:37;;;;;;;18.97;17.17;;;;;;;14.55;100.00;98374.13;5115757;28;20241;-76
2023/05/08 01:56:10;;;;;;;19.77;17.80;;;;;;;14.61;100.00;98369.69;5115590;28;20227;-76
2023/05/08 01:58:38;;;;;;;18.47;16.53;;;;;;;14.61;100.00;98367.81;5115713;28;20187;-76
2023/05/08 02:01:05;;;;;;;18.93;17.13;;;;;;;14.64;100.00;98372.72;5115470;28;20606;-76
2023/05/08 02:03:34;;;;;;;18.10;16.27;;;;;;;14.61;100.00;98369.69;5115066;28;20203;-76
2023/05/08 02:06:02;;;;;;;20.27;18.17;;;;;;;14.62;100.00;98377.50;5115390;28;20223;-76
2023/05/08 02:08:30;;;;;;;19.10;17.10;;;;;;;14.60;100.00;98376.91;5115294;28;20226;-76
2023/05/08 02:10:58;;;;;;;19.50;17.60;;;;;;;14.56;100.00;98373.06;5115366;28;20264;-76
2023/05/08 02:13:26;;;;;;;20.83;18.50;;;;;;;14.54;100.00;98380.53;5115283;28;20199;-76
2023/05/08 02:15:54;;;;;;;21.73;19.30;;;;;;;14.53;100.00;98373.56;5114894;28;20744;-76
2023/05/08 02:18:23;;;;;;;20.23;18.23;;;;;;;14.54;100.00;98374.34;5114872;28;20214;-76
2023/05/08 02:20:52;;;;;;;22.43;19.03;;;;;;;14.53;100.00;98386.09;5114834;28;20222;-76
2023/05/08 02:23:20;;;;;;;22.93;19.57;;;;;;;14.50;100.00;98375.88;5115188;28;20207;-76
2023/05/08 02:25:47;;;;;;;21.00;18.80;;;;;;;14.51;100.00;98370.28;5115041;28;20227;-76
2023/05/08 02:28:16;;;;;;;21.20;18.93;;;;;;;14.50;100.00;98374.03;5114622;28;20222;-76
2023/05/08 02:30:44;;;;;;;21.20;18.97;;;;;;;14.48;100.00;98375.31;5114944;28;20207;-76
2023/05/08 02:33:13;;;;;;;20.77;18.63;;;;;;;14.55;100.00;98378.66;5114654;28;20207;-76
2023/05/08 02:35:41;;;;;;;21.17;18.80;;;;;;;14.50;100.00;98379.38;5114823;28;20585;-76
2023/05/08 02:38:09;;;;;;;19.63;17.73;;;;;;;14.49;100.00;98388.44;5114871;28;20201;-76
2023/05/08 02:40:38;;;;;;;16.80;15.30;;;;;;;14.48;100.00;98386.00;5114760;28;20203;-76
2023/05/08 02:43:06;;;;;;;16.67;14.97;;;;;;;14.46;100.00;98383.56;5114636;28;20199;-76
2023/05/08 02:45:40;;;;;;;16.07;14.37;;;;;;;14.43;100.00;98384.03;5114302;28;20745;-76
2023/05/08 02:48:16;;;;;;;16.20;14.70;;;;;;;14.43;100.00;98377.88;5113726;28;20260;-76
2023/05/08 02:51:14;;;;;;;16.00;14.40;;;;;;;14.41;100.00;98386.13;5114619;28;20226;-76
2023/05/08 02:53:50;;;;;;;15.13;13.67;;;;;;;14.46;100.00;98383.56;5088312;28;20203;-76
2023/05/08 02:56:52;;;;;;;14.53;13.17;;;;;;;14.49;100.00;98383.09;5114172;28;20261;-76
2023/05/08 02:59:35;;;;;;;12.10;11.00;;;;;;;14.48;100.00;98389.47;5103245;28;20697;-76
2023/05/08 03:02:15;;;;;;;11.83;10.83;;;;;;;14.44;100.00;98387.53;5114199;28;20195;-76
2023/05/08 03:04:50;;;;;;;10.87;10.00;;;;;;;14.51;100.00;98385.53;5114297;28;20198;-76
2023/05/08 03:07:21;;;;;;;11.90;10.90;;;;;;;14.44;100.00;98380.31;5114290;28;20239;-76
2023/05/08 03:09:55;;;;;;;11.80;10.70;;;;;;;14.37;100.00;98384.97;5114248;27;20199;-76
2023/05/08 03:12:24;;;;;;;13.03;11.93;;;;;;;14.30;100.00;98376.25;5114240;28;20199;-76
2023/05/08 03:15:00;;;;;;;12.80;11.80;;;;;;;14.36;100.00;98382.53;5113817;27;20670;-76
2023/05/08 03:17:30;;;;;;;14.37;12.90;;;;;;;14.32;100.00;98379.50;5113870;28;20632;-76
2023/05/08 03:20:02;;;;;;;12.73;11.57;;;;;;;14.33;100.00;98377.66;5112980;28;20210;-76
2023/05/08 03:22:31;;;;;;;12.13;11.03;;;;;;;14.33;100.00;98378.47;5112892;28;20191;-77
2023/05/08 03:25:01;;;;;;;12.63;11.33;;;;;;;14.36;100.00;98372.66;5113816;28;20685;-77
2023/05/08 03:27:29;;;;;;;14.20;12.83;;;;;;;14.34;100.00;98376.63;5114129;27;20211;-77
2023/05/08 03:29:58;;;;;;;13.87;12.63;;;;;;;14.37;100.00;98376.94;5114129;28;20215;-77
2023/05/08 03:32:27;;;;;;;14.83;13.23;;;;;;;14.31;100.00;98377.91;5113732;28;20538;-77
2023/05/08 03:34:55;;;;;;;14.83;13.53;;;;;;;14.34;100.00;98379.28;5113605;28;20214;-74
2023/05/08 03:37:22;;;;;;;14.87;13.47;;;;;;;14.31;100.00;98385.09;5113511;28;20204;-73
2023/05/08 03:39:48;;;;;;;15.33;13.93;;;;;;;14.25;100.00;98376.13;5113426;28;20203;-73
2023/05/08 03:42:20;;;;;;;14.77;13.40;;;;;;;14.26;100.00;98376.97;5113285;28;20203;-73
2023/05/08 03:44:50;;;;;;;14.60;13.20;;;;;;;14.32;100.00;98378.69;5113365;28;20248;-73
2023/05/08 03:47:18;;;;;;;13.10;11.90;;;;;;;14.27;100.00;98379.41;5113363;28;20227;-73
2023/05/08 03:49:49;;;;;;;16.00;13.07;;;;;;;14.29;100.00;98384.53;5113415;28;20661;-73
2023/05/08 03:52:16;;;;;;;14.03;12.70;;;;;;;14.28;100.00;98383.69;5113855;28;20203;-73
2023/05/08 03:54:43;;;;;;;13.33;12.23;;;;;;;14.29;100.00;98385.31;5113856;28;20207;-73
2023/05/08 03:57:10;;;;;;;13.67;12.47;;;;;;;14.35;100.00;98380.91;5113735;28;20705;-73
2023/05/08 03:59:58;;;;;;;14.47;13.20;;;;;;;14.35;100.00;98389.75;5116762;28;20659;-73
2023/05/08 04:02:42;;;;;;;13.87;12.63;;;;;;;14.28;100.00;98386.38;5117482;28;20187;-73
2023/05/08 04:05:15;;;;;;;14.40;13.10;;;;;;;14.28;100.00;98380.19;5117266;28;20546;-73
2023/05/08 04:07:50;;;;;;;14.03;12.83;;;;;;;14.24;100.00;98387.88;5117543;28;20231;-73
2023/05/08 04:10:24;;;;;;;14.27;13.07;;;;;;;14.25;100.00;98384.16;5117708;28;20194;-73
2023/05/08 04:13:05;;;;;;;14.83;13.50;;;;;;;14.27;100.00;98387.44;5117717;28;20191;-73
2023/05/08 04:15:35;;;;;;;13.97;12.70;;;;;;;14.27;100.00;98394.63;5117214;28;20591;-73
2023/05/08 04:18:14;;;;;;;13.63;12.30;;;;;;;14.29;100.00;98401.38;5117475;28;20187;-73
2023/05/08 04:20:44;;;;;;;13.00;12.00;;;;;;;14.27;100.00;98408.00;5115886;28;20215;-73
2023/05/08 04:23:17;;;;;;;13.20;12.13;;;;;;;14.25;100.00;98405.56;5115759;28;20742;-73
2023/05/08 04:25:44;;;;;;;13.67;12.47;;;;;;;14.26;100.00;98411.72;5117286;28;20233;-73
2023/05/08 04:28:11;;;;;;;14.47;13.17;;;;;;;14.25;100.00;98410.09;5117171;28;20234;-73
2023/05/08 04:30:39;;;;;;;15.33;13.93;;;;;;;14.29;100.00;98408.59;5117287;28;20210;-73
2023/05/08 04:33:07;;;;;;;14.63;13.13;;;;;;;14.25;100.00;98410.91;5116740;28;20207;-73
2023/05/08 04:35:34;;;;;;;13.90;12.70;;;;;;;14.29;100.00;98412.06;5116442;28;20590;-73
2023/05/08 04:38:00;;;;;;;14.67;13.47;;;;;;;14.28;100.00;98417.66;5116851;28;20206;-73
2023/05/08 04:40:27;;;;;;;14.27;12.97;;;;;;;14.29;100.00;98413.94;5116657;28;20199;-73
2023/05/08 04:42:53;;;;;;;15.80;13.77;;;;;;;14.31;100.00;98418.00;5116054;28;20218;-73
2023/05/08 04:45:20;;;;;;;14.07;12.90;;;;;;;14.36;100.00;98415.44;5115865;28;20709;-73
2023/05/08 04:47:46;;;;;;;14.77;13.37;;;;;;;14.36;100.00;98417.28;5116420;28;20203;-73
2023/05/08 04:50:12;;;;;;;13.07;11.90;;;;;;;14.34;100.00;98422.88;5116362;28;20298;-73
2023/05/08 04:52:39;;;;;;;13.57;12.33;;;;;;;14.30;100.00;98418.25;5116403;28;20662;-73
2023/05/08 04:55:06;;;;;;;13.80;12.43;;;;;;;14.31;100.00;98422.53;5116520;28;20324;-73
2023/05/08 04:57:33;;;;;;;12.60;11.60;;;;;;;14.39;100.00;98420.31;5116817;28;20211;-73
2023/05/08 04:59:59;;;;;;;12.97;11.83;;;;;;;14.36;100.00;98420.78;5116576;28;20199;-73
2023/05/08 05:02:26;;;;;;;13.03;11.90;;;;;;;14.31;100.00;98423.38;5116470;28;20298;-73
2023/05/08 05:04:52;;;;;;;11.53;10.53;;;;;;;14.34;100.00;98422.88;5116155;28;20223;-73
2023/05/08 05:07:19;;;;;;;12.90;11.70;;;;;;;14.31;100.00;98427.88;5116051;28;20611;-73
2023/05/08 05:09:45;;;;;;;12.30;11.27;;;;;;;14.32;100.00;98429.50;5115647;28;20585;-73
2023/05/08 05:12:11;;;;;;;12.30;11.27;;;;;;;14.39;100.00;98432.88;5115927;28;20666;-73
2023/05/08 05:14:38;;;;;;;13.37;12.03;;;;;;;14.40;100.00;98437.19;5115515;28;20564;-73
2023/05/08 05:17:04;;;;;;;12.60;11.43;;;;;;;14.42;100.00;98435.91;5115610;28;20713;-73
2023/05/08 05:19:31;;;;;;;11.77;10.67;;;;;;;14.44;100.00;98439.19;5115572;28;20206;-73
2023/05/08 05:21:58;;;;;;;12.20;11.20;;;;;;;14.43;100.00;98437.53;5115710;28;20214;-73
2023/05/08 05:24:25;;;;;;;11.47;10.57;;;;;;;14.41;100.00;98438.81;5115451;28;20637;-73
2023/05/08 05:26:51;;;;;;;11.77;10.77;;;;;;;14.41;100.00;98441.47;5115880;28;20223;-73
2023/05/08 05:29:17;;;;;;;11.43;10.43;;;;;;;14.39;100.00;98444.38;5115709;28;20226;-73
2023/05/08 05:31:44;;;;;;;11.70;10.70;;;;;;;14.38;100.00;98437.41;5115538;28;20666;-73
2023/05/08 05:34:10;;;;;;;11.80;10.80;;;;;;;14.30;100.00;98445.78;5115663;28;20210;-74
2023/05/08 05:36:37;;;;;;;11.67;10.57;;;;;;;14.37;100.00;98445.66;5115769;28;20226;-73
2023/05/08 05:39:03;;;;;;;12.73;10.70;;;;;;;14.40;100.00;98448.72;5115539;28;20230;-73
2023/05/08 05:41:30;;;;;;;12.47;11.37;;;;;;;14.33;100.00;98442.66;5115793;28;20203;-75
2023/05/08 05:43:56;;;;;;;12.30;11.20;;;;;;;14.32;100.00;98450.91;5116021;28;20294;-73
2023/05/08 05:46:26;;;;;;;13.03;11.93;;;;;;;14.33;100.00;98447.22;5115206;28;20234;-74
2023/05/08 05:48:53;;;;;;;13.70;12.50;;;;;;;14.33;100.00;98458.69;5115382;28;20598;-73
2023/05/08 05:51:19;;;;;;;13.33;12.20;;;;;;;14.31;100.00;98454.63;5115294;28;20203;-73
2023/05/08 05:53:45;;;;;;;12.87;11.67;;;;;;;14.31;100.00;98449.28;5115189;28;20203;-73
2023/05/08 05:56:12;;;;;;;13.63;12.43;;;;;;;14.35;100.00;98450.44;5115287;28;20230;-73
2023/05/08 05:58:39;;;;;;;13.00;11.87;;;;;;;14.34;100.00;98454.97;5115018;28;20199;-73
2023/05/08 06:01:05;;;;;;;13.10;12.00;;;;;;;14.34;100.00;98448.81;5114892;28;20207;-73
2023/05/08 06:03:32;;;;;;;13.93;12.53;;;;;;;14.34;100.00;98457.66;5114870;28;20662;-73
2023/05/08 06:05:58;;;;;;;13.90;12.73;;;;;;;14.34;100.00;98452.28;5115058;28;20222;-74
2023/05/08 06:08:25;;;;;;;13.00;11.90;;;;;;;14.30;100.00;98455.69;5114580;28;20581;-74
2023/05/08 06:10:52;;;;;;;12.03;11.03;;;;;;;14.34;100.00;98454.97;5115043;28;20207;-74
2023/05/08 06:13:18;;;;;;;12.73;11.63;;;;;;;14.35;100.00;98461.97;5114327;28;20214;-74
2023/05/08 06:15:45;;;;;;;12.67;11.60;;;;;;;14.35;100.00;98464.66;5115250;28;20283;-74
2023/05/08 06:18:11;;;;;;;13.27;12.03;;;;;;;14.37;100.00;98454.50;5114463;28;20774;-74
2023/05/08 06:20:38;;;;;;;12.47;11.37;;;;;;;14.39;100.00;98459.63;5114355;28;20215;-73
2023/05/08 06:23:05;;;;;;;12.20;11.10;;;;;;;14.39;100.00;98459.63;5113797;28;20203;-75
2023/05/08 06:25:32;;;;;;;13.57;12.37;;;;;;;14.36;100.00;98458.25;5115097;28;20301;-75
2023/05/08 06:27:58;;;;;;;13.53;12.27;;;;;;;14.38;100.00;98458.81;5114711;28;20203;-74
2023/05/08 06:30:24;;;;;;;13.87;12.50;;;;;;;14.40;100.00;98461.25;5114964;28;20211;-74
2023/05/08 06:32:51;;;;;;;13.77;12.47;;;;;;;14.41;100.00;98458.34;5115359;28;20231;-75
2023/05/08 06:35:18;;;;;;;14.10;12.70;;;;;;;14.43;100.00;98461.59;5114951;28;20254;-74
2023/05/08 06:37:45;;;;;;;13.47;12.27;;;;;;;14.41;100.00;98465.56;5115217;28;20252;-74
2023/05/08 06:40:12;;;;;;;12.33;11.33;;;;;;;14.47;100.00;98461.97;5114831;28;20199;-74
2023/05/08 06:42:39;;;;;;;12.23;11.23;;;;;;;14.46;100.00;98471.03;5114911;28;20211;-75
2023/05/08 06:45:07;;;;;;;12.97;11.83;;;;;;;14.46;100.00;98471.03;5114979;28;20203;-73
2023/05/08 06:47:33;;;;;;;13.40;12.20;;;;;;;14.48;100.00;98469.72;5114686;27;20203;-73
2023/05/08 06:50:00;;;;;;;13.10;11.83;;;;;;;14.51;100.00;98471.97;5114745;28;20227;-73
2023/05/08 06:52:27;;;;;;;13.67;12.40;;;;;;;14.56;100.00;98471.28;5114691;28;20211;-73
2023/05/08 06:54:53;;;;;;;13.10;11.90;;;;;;;14.61;100.00;98468.69;5114704;28;20207;-73
2023/05/08 06:57:19;;;;;;;12.53;11.47;;;;;;;14.63;100.00;98480.78;5115260;28;20230;-73
2023/05/08 06:59:46;;;;;;;12.47;11.47;;;;;;;14.56;100.00;98474.75;5114900;28;20273;-73
2023/05/08 07:02:12;;;;;;;13.40;12.30;;;;;;;14.56;100.00;98474.75;5114603;28;20680;-73
2023/05/08 07:04:39;;;;;;;12.03;11.03;;;;;;;14.59;100.00;98476.13;5114889;28;20203;-73
2023/05/08 07:07:06;;;;;;;12.43;11.40;;;;;;;14.64;100.00;98476.25;5114517;28;20231;-73
2023/05/08 07:09:33;;;;;;;12.57;11.17;;;;;;;14.58;100.00;98472.66;5114634;28;20223;-73
2023/05/08 07:11:59;;;;;;;12.27;11.17;;;;;;;14.60;100.00;98478.59;5114723;28;20207;-73
2023/05/08 07:14:26;;;;;;;11.87;10.83;;;;;;;14.61;100.00;98482.88;5114134;28;20207;-73
2023/05/08 07:16:52;;;;;;;11.70;10.70;;;;;;;14.67;100.00;98486.50;5114343;28;20227;-73
2023/05/08 07:19:19;;;;;;;10.87;9.97;;;;;;;14.68;100.00;98488.13;5114344;28;20657;-73
2023/05/08 07:21:46;;;;;;;11.77;10.73;;;;;;;14.74;100.00;98493.34;5114110;28;20298;-73
2023/05/08 07:24:12;;;;;;;12.33;11.13;;;;;;;14.75;100.00;98484.25;5114061;28;20259;-73
2023/05/08 07:26:38;;;;;;;11.50;10.50;;;;;;;14.79;100.00;98482.75;5102382;28;20713;-73
2023/05/08 07:29:05;;;;;;;12.07;11.03;;;;;;;14.78;100.00;98483.78;5093687;28;20223;-73
2023/05/08 07:31:31;;;;;;;11.40;10.40;;;;;;;14.85;100.00;98486.34;5094159;28;20210;-73
2023/05/08 07:33:57;;;;;;;10.50;9.70;;;;;;;14.93;100.00;98488.66;5093658;28;20210;-73
2023/05/08 07:36:24;;;;;;;11.13;10.13;;;;;;;14.93;100.00;98486.78;5093796;28;20223;-73
2023/05/08 07:38:50;;;;;;;10.67;9.80;;;;;;;14.93;100.00;98491.34;5094205;28;20206;-73
2023/05/08 07:41:16;;;;;;;10.93;9.80;;;;;;;14.95;100.00;98495.41;5094059;28;20207;-73
2023/05/08 07:43:44;;;;;;;10.50;9.60;;;;;;;15.05;100.00;98494.78;5093834;28;20218;-73
2023/05/08 07:46:16;;;;;;;11.03;10.00;;;;;;;15.27;100.00;98499.28;5093532;28;20224;-73
2023/05/08 07:48:43;;;;;;;10.87;9.90;;;;;;;15.20;100.00;98495.13;5093473;28;20568;-73
2023/05/08 07:51:10;;;;;;;10.67;9.87;;;;;;;15.23;100.00;98498.13;5093453;28;20569;-73
2023/05/08 07:53:37;;;;;;;10.10;9.20;;;;;;;15.24;100.00;98499.75;5093845;28;20207;-73
2023/05/08 07:56:04;;;;;;;10.83;9.93;;;;;;;15.24;100.00;98501.63;5093366;28;20226;-73
2023/05/08 07:58:31;;;;;;;11.27;9.50;;;;;;;15.23;100.00;98498.13;5093534;28;20216;-73
2023/05/08 08:00:57;;;;;;;11.33;10.33;;;;;;;15.13;100.00;98497.94;5093169;28;20666;-73
2023/05/08 08:03:23;;;;;;;10.97;10.10;;;;;;;15.11;100.00;98494.66;5093238;28;20667;-73
2023/05/08 08:05:50;;;;;;;10.93;9.97;;;;;;;15.12;100.00;98499.00;5093644;28;20322;-73
2023/05/08 08:08:16;;;;;;;11.17;10.27;;;;;;;14.99;100.00;98506.47;5093684;28;20211;-73
2023/05/08 08:10:43;;;;;;;11.40;10.40;;;;;;;15.03;100.00;98497.72;5093535;28;20231;-73
2023/05/08 08:13:09;;;;;;;12.10;11.00;;;;;;;15.06;100.00;98502.59;5093540;28;20200;-73
2023/05/08 08:15:35;;;;;;;12.03;11.03;;;;;;;15.07;100.00;98498.88;5093465;28;20230;-73
2023/05/08 08:18:02;;;;;;;11.90;10.90;;;;;;;15.21;100.00;98504.78;5093120;28;20204;-73
2023/05/08 08:20:28;;;;;;;10.43;9.43;;;;;;;15.08;100.00;98505.03;5093408;28;20211;-73
2023/05/08 08:22:54;;;;;;;11.60;10.40;;;;;;;15.08;100.00;98505.88;5093823;28;20211;-73
2023/05/08 08:25:21;;;;;;;12.80;11.47;;;;;;;15.10;100.00;98508.31;5093501;28;20224;-73
2023/05/08 08:27:47;;;;;;;11.93;10.83;;;;;;;15.15;100.00;98509.22;5093217;28;20208;-73
2023/05/08 08:30:14;;;;;;;11.93;10.93;;;;;;;15.18;100.00;98508.75;5093062;28;20259;-73
2023/05/08 08:32:40;;;;;;;11.93;10.73;;;;;;;15.19;100.00;98517.59;5092875;28;20207;-73
2023/05/08 08:35:07;;;;;;;12.13;11.10;;;;;;;15.23;100.00;98511.53;5093226;28;20204;-73
2023/05/08 08:37:33;;;;;;;11.53;10.53;;;;;;;15.27;100.00;98511.84;5093160;28;20298;-73
2023/05/08 08:40:00;;;;;;;12.50;11.40;;;;;;;15.25;100.00;98509.41;5093484;28;20202;-73
2023/05/08 08:42:26;;;;;;;12.50;11.33;;;;;;;15.31;100.00;98521.88;5093497;28;20238;-73
2023/05/08 08:44:53;;;;;;;12.13;10.83;;;;;;;15.39;100.00;98512.69;5093894;28;20690;-73
2023/05/08 08:47:27;;;;;;;10.37;9.30;;;;;;;15.34;100.00;98510.69;5097064;28;20199;-73
2023/05/08 08:49:55;;;;;;;11.27;10.17;;;;;;;15.39;100.00;98513.50;5097011;28;20679;-73
2023/05/08 08:52:38;;;;;;;11.10;10.03;;;;;;;15.47;100.00;98513.09;5097197;28;20566;-73
2023/05/08 08:55:07;;;;;;;11.10;10.20;;;;;;;15.61;100.00;98517.13;5096991;28;20641;-73
2023/05/08 08:57:36;;;;;;;10.90;9.90;;;;;;;15.66;100.00;98519.09;5097584;28;20199;-73
2023/05/08 09:00:04;;;;;;;10.57;9.57;;;;;;;15.62;100.00;98518.78;5097136;28;20196;-74
2023/05/08 09:02:31;;;;;;;9.70;8.80;;;;;;;15.75;100.00;98523.03;5097943;28;20207;-74
2023/05/08 09:04:58;;;;;;;9.10;8.20;;;;;;;15.70;100.00;98526.41;5097331;28;20203;-74
2023/05/08 09:07:25;;;;;;;9.80;8.80;;;;;;;15.77;100.00;98520.91;5097798;28;20210;-74
2023/05/08 09:09:52;;;;;;;8.87;8.13;;;;;;;15.71;100.00;98530.75;5097451;28;20259;-74
2023/05/08 09:12:19;;;;;;;10.03;9.17;;;;;;;15.64;100.00;98527.38;5097196;28;20211;-74
2023/05/08 09:14:46;;;;;;;8.37;7.57;;;;;;;15.85;100.00;98515.97;5096712;28;20256;-74
2023/05/08 09:17:13;;;;;;;9.23;8.33;;;;;;;15.77;100.00;98526.25;5096765;28;20220;-74
2023/05/08 09:19:39;;;;;;;10.00;8.50;;;;;;;15.70;100.00;98523.72;5097314;28;20200;-74
2023/05/08 09:22:08;;;;;;;9.40;8.60;;;;;;;15.76;100.00;98520.09;5096878;28;20225;-74
2023/05/08 09:24:57;;;;;;;9.57;8.67;;;;;;;15.60;100.00;98518.19;5097178;28;20267;-74
2023/05/08 09:27:26;;;;;;;10.77;8.57;;;;;;;15.73;100.00;98520.56;5096949;28;20204;-73
2023/05/08 09:30:08;;;;;;;10.00;9.10;;;;;;;15.77;100.00;98524.41;5096863;28;20231;-74
2023/05/08 09:32:38;;;;;;;10.37;9.40;;;;;;;15.89;100.00;98525.16;5109178;28;20781;-73
2023/05/08 09:35:06;;;;;;;9.40;8.57;;;;;;;15.95;100.00;98528.75;5117078;28;20204;-73
2023/05/08 09:37:32;;;;;;;9.27;8.33;;;;;;;16.05;100.00;98524.38;5117419;28;20199;-74
2023/05/08 09:40:21;;;;;;;10.43;9.43;;;;;;;16.24;100.00;98525.75;5117471;28;20205;-74
2023/05/08 09:42:50;;;;;;;10.70;9.60;;;;;;;16.40;100.00;98529.53;5117638;28;20187;-75
2023/05/08 09:45:27;;;;;;;9.87;8.87;;;;;;;16.19;100.00;98523.00;5119234;28;20231;-75
2023/05/08 09:47:53;;;;;;;10.90;9.90;;;;;;;16.17;100.00;98527.81;5117395;28;20207;-73
2023/05/08 09:50:20;;;;;;;9.50;8.70;;;;;;;16.45;100.00;98533.13;5116584;28;20222;-73
2023/05/08 09:52:48;;;;;;;10.30;9.33;;;;;;;16.40;100.00;98526.84;5116808;28;20673;-73
2023/05/08 09:55:15;;;;;;;10.77;9.63;;;;;;;16.47;100.00;98528.31;5116646;28;20227;-74
2023/05/08 09:57:56;;;;;;;11.80;10.40;;;;;;;16.51;100.00;98528.66;5116733;28;20226;-74
2023/05/08 10:00:24;;;;;;;13.43;10.40;;;;;;;16.57;100.00;98527.66;5116543;28;20183;-74
2023/05/08 10:03:02;;;;;;;11.53;10.40;;;;;;;16.38;100.00;98527.06;5116649;28;20205;-74
2023/05/08 10:05:30;;;;;;;11.77;10.30;;;;;;;16.40;100.00;98532.22;5115874;28;20222;-74
2023/05/08 10:08:18;;;;;;;10.97;9.90;;;;;;;16.33;100.00;98526.19;5116398;28;20207;-74
2023/05/08 10:10:44;;;;;;;11.60;10.47;;;;;;;16.47;100.00;98522.16;5116245;28;20717;-74
2023/05/08 10:13:10;;;;;;;10.73;9.73;;;;;;;16.25;100.00;98521.22;5116532;28;20203;-74
2023/05/08 10:15:38;;;;;;;10.60;9.50;;;;;;;16.35;100.00;98526.75;5116261;28;20246;-74
2023/05/08 10:18:06;;;;;;;11.70;10.70;;;;;;;16.21;100.00;98528.13;5116332;28;20203;-74
2023/05/08 10:20:35;;;;;;;13.37;11.47;;;;;;;16.32;100.00;98525.38;5115694;28;20270;-74
2023/05/08 10:23:04;;;;;;;12.67;10.63;;;;;;;16.48;100.00;98529.97;5116071;28;20207;-74
2023/05/08 10:25:33;;;;;;;10.90;9.80;;;;;;;16.50;100.00;98527.84;5115936;28;20223;-74
2023/05/08 10:28:24;;;;;;;10.93;9.90;;;;;;;16.70;100.00;98525.44;5115225;28;20203;-74
2023/05/08 10:30:50;;;;;;;10.40;9.30;;;;;;;16.68;100.00;98534.78;5115390;28;20223;-74
2023/05/08 10:33:20;;;;;;;11.23;10.23;;;;;;;16.93;100.00;98527.94;5115246;28;20783;-74
2023/05/08 10:35:48;;;;;;;10.07;9.17;;;;;;;16.84;100.00;98525.91;5115318;28;20226;-74
2023/05/08 10:38:16;;;;;;;11.60;10.50;;;;;;;16.96;100.00;98530.13;5115455;28;20211;-74
2023/05/08 10:40:43;;;;;;;10.77;9.77;;;;;;;17.00;100.00;98525.88;5115254;28;20199;-74
2023/05/08 10:43:11;;;;;;;11.70;10.10;;;;;;;16.99;100.00;98526.94;5115632;28;20229;-74
2023/05/08 10:45:38;;;;;;;11.20;10.20;;;;;;;17.11;100.00;98530.34;5115322;28;20223;-74
2023/05/08 10:48:22;;;;;;;10.83;9.83;;;;;;;17.17;100.00;98528.50;5114734;28;20210;-73
2023/05/08 10:51:09;;;;;;;10.93;9.93;;;;;;;17.15;100.00;98531.44;5114376;28;20670;-73
2023/05/08 10:53:56;;;;;;;11.13;10.07;;;;;;;17.14;100.00;98521.75;5113352;28;20191;-73
2023/05/08 10:56:27;;;;;;;12.03;10.20;;;;;;;17.03;100.00;98525.38;5114099;28;20219;-73
2023/05/08 10:58:58;;;;;;;10.43;9.43;;;;;;;17.25;100.00;98528.09;5114822;28;20226;-73
2023/05/08 11:01:26;;;;;;;10.80;9.40;;;;;;;17.06;100.00;98519.50;5114653;28;20248;-74
2023/05/08 11:03:53;;;;;;;10.80;9.77;;;;;;;17.10;100.00;98523.31;5114721;28;20214;-72
2023/05/08 11:06:47;;;;;;;10.50;9.40;;;;;;;17.22;100.00;98521.34;5114665;28;20280;-73
2023/05/08 11:09:28;;;;;;;10.40;9.30;;;;;;;17.59;100.00;98518.81;5089986;28;20674;-72
2023/05/08 11:12:20;;;;;;;9.87;8.90;;;;;;;17.32;100.00;98521.44;5094201;28;20191;-73
2023/05/08 11:14:57;;;;;;;10.17;9.17;;;;;;;17.39;100.00;98519.44;5094826;28;20199;-72
2023/05/08 11:17:25;;;;;;;10.17;9.27;;;;;;;17.43;100.00;98519.72;5094324;28;20194;-73
2023/05/08 11:19:57;;;;;;;8.97;8.07;;;;;;;17.41;100.00;98519.97;5093827;28;20204;-73
2023/05/08 11:22:28;;;;;;;8.30;6.70;;;;;;;17.59;100.00;98519.66;5094228;28;20195;-73
2023/05/08 11:25:17;;;;;;;8.30;7.60;;;;;;;17.52;100.00;98520.91;5094580;28;20188;-73